sensor_id;sensor_type;location;lat;lon;timestamp;pressure;altitude;pressure_sealevel;temperature;humidity
70730;BME280;58315;53.336;55.932;2023-08-07T00:01:01;99374.34;;;23.54;49.86
70730;BME280;58315;53.336;55.932;2023-08-07T00:03:28;99375.28;;;23.48;49.98
70730;BME280;58315;53.336;55.932;2023-08-07T00:05:54;99378.09;;;23.53;49.89
70730;BME280;58315;53.336;55.932;2023-08-07T00:08:20;99382.94;;;23.51;49.96
70730;BME280;58315;53.336;55.932;2023-08-07T00:10:47;99381.03;;;23.52;49.98
70730;BME280;58315;53.336;55.932;2023-08-07T00:13:14;99383.66;;;23.58;49.67
70730;BME280;58315;53.336;55.932;2023-08-07T00:15:40;99375.19;;;23.55;49.69
70730;BME280;58315;53.336;55.932;2023-08-07T00:18:06;99390.41;;;23.49;50.08
70730;BME280;58315;53.336;55.932;2023-08-07T00:20:32;99378.81;;;23.30;50.51
70730;BME280;58315;53.336;55.932;2023-08-07T00:22:58;99380.16;;;23.21;50.74
70730;BME280;58315;53.336;55.932;2023-08-07T00:25:25;99372.38;;;23.13;50.94
70730;BME280;58315;53.336;55.932;2023-08-07T00:27:51;99380.28;;;23.15;50.96
70730;BME280;58315;53.336;55.932;2023-08-07T00:30:17;99379.59;;;23.19;51.06
70730;BME280;58315;53.336;55.932;2023-08-07T00:32:44;99383.16;;;23.13;50.95
70730;BME280;58315;53.336;55.932;2023-08-07T00:35:10;99383.34;;;23.18;51.03
70730;BME280;58315;53.336;55.932;2023-08-07T00:37:37;99384.97;;;23.19;50.84
70730;BME280;58315;53.336;55.932;2023-08-07T00:40:03;99386.38;;;23.22;50.97
70730;BME280;58315;53.336;55.932;2023-08-07T00:42:31;99375.09;;;23.13;51.34
70730;BME280;58315;53.336;55.932;2023-08-07T00:44:57;99384.91;;;23.26;50.88
70730;BME280;58315;53.336;55.932;2023-08-07T00:47:24;99381.34;;;23.25;50.85
70730;BME280;58315;53.336;55.932;2023-08-07T00:49:50;99378.16;;;23.17;51.13
70730;BME280;58315;53.336;55.932;2023-08-07T00:52:17;99378.59;;;23.14;51.28
70730;BME280;58315;53.336;55.932;2023-08-07T00:54:44;99386.47;;;23.15;51.20
70730;BME280;58315;53.336;55.932;2023-08-07T00:57:13;99377.84;;;23.25;51.18
70730;BME280;58315;53.336;55.932;2023-08-07T00:59:41;99376.06;;;23.19;51.02
70730;BME280;58315;53.336;55.932;2023-08-07T01:02:09;99376.28;;;23.17;51.27
70730;BME280;58315;53.336;55.932;2023-08-07T01:04:35;99382.78;;;23.09;51.56
70730;BME280;58315;53.336;55.932;2023-08-07T01:07:02;99379.72;;;23.06;51.89
70730;BME280;58315;53.336;55.932;2023-08-07T01:09:28;99384.53;;;23.22;51.44
70730;BME280;58315;53.336;55.932;2023-08-07T01:14:37;99388.31;;;23.70;50.53
70730;BME280;58315;53.336;55.932;2023-08-07T01:17:11;99386.16;;;23.42;51.15
70730;BME280;58315;53.336;55.932;2023-08-07T01:19:40;99379.03;;;23.29;51.27
70730;BME280;58315;53.336;55.932;2023-08-07T01:22:17;99383.81;;;23.45;51.28
70730;BME280;58315;53.336;55.932;2023-08-07T01:24:49;99375.03;;;23.50;51.17
70730;BME280;58315;53.336;55.932;2023-08-07T01:35:20;99390.84;;;23.46;51.06
70730;BME280;58315;53.336;55.932;2023-08-07T01:37:48;99377.25;;;23.41;51.23
70730;BME280;58315;53.336;55.932;2023-08-07T01:40:16;99371.25;;;23.39;51.27
70730;BME280;58315;53.336;55.932;2023-08-07T01:42:44;99383.38;;;23.48;51.25
70730;BME280;58315;53.336;55.932;2023-08-07T01:45:10;99383.59;;;23.47;51.15
70730;BME280;58315;53.336;55.932;2023-08-07T01:47:36;99383.22;;;23.43;51.43
70730;BME280;58315;53.336;55.932;2023-08-07T01:50:02;99388.84;;;23.42;51.62
70730;BME280;58315;53.336;55.932;2023-08-07T01:52:31;99383.09;;;23.38;51.66
70730;BME280;58315;53.336;55.932;2023-08-07T01:54:57;99383.09;;;23.38;51.85
70730;BME280;58315;53.336;55.932;2023-08-07T01:57:23;99383.09;;;23.38;51.97
70730;BME280;58315;53.336;55.932;2023-08-07T01:59:49;99386.16;;;23.42;52.03
70730;BME280;58315;53.336;55.932;2023-08-07T02:02:15;99388.53;;;23.50;51.78
70730;BME280;58315;53.336;55.932;2023-08-07T02:04:41;99389.06;;;23.58;51.52
70730;BME280;58315;53.336;55.932;2023-08-07T02:07:09;99392.47;;;23.66;51.49
70730;BME280;58315;53.336;55.932;2023-08-07T02:09:34;99394.28;;;23.72;51.63
70730;BME280;58315;53.336;55.932;2023-08-07T02:12:01;99395.38;;;23.82;51.44
70730;BME280;58315;53.336;55.932;2023-08-07T02:14:28;99384.84;;;23.93;51.34
70730;BME280;58315;53.336;55.932;2023-08-07T02:16:54;99396.00;;;23.96;51.08
70730;BME280;58315;53.336;55.932;2023-08-07T02:19:21;99393.69;;;24.00;51.29
70730;BME280;58315;53.336;55.932;2023-08-07T02:21:47;99390.63;;;23.96;51.35
70730;BME280;58315;53.336;55.932;2023-08-07T02:24:13;99394.38;;;23.95;51.52
70730;BME280;58315;53.336;55.932;2023-08-07T02:26:39;99402.97;;;24.04;51.50
70730;BME280;58315;53.336;55.932;2023-08-07T02:29:05;99397.47;;;24.11;51.52
70730;BME280;58315;53.336;55.932;2023-08-07T02:31:33;99394.53;;;24.24;51.37
70730;BME280;58315;53.336;55.932;2023-08-07T02:33:59;99395.50;;;24.18;51.59
70730;BME280;58315;53.336;55.932;2023-08-07T02:36:25;99393.00;;;24.16;51.55
70730;BME280;58315;53.336;55.932;2023-08-07T02:38:51;99397.72;;;24.21;51.83
70730;BME280;58315;53.336;55.932;2023-08-07T02:41:17;99397.59;;;24.27;51.46
70730;BME280;58315;53.336;55.932;2023-08-07T02:43:43;99390.66;;;24.20;51.66
70730;BME280;58315;53.336;55.932;2023-08-07T02:46:09;99394.69;;;24.29;51.38
70730;BME280;58315;53.336;55.932;2023-08-07T02:48:35;99393.97;;;24.22;51.66
70730;BME280;58315;53.336;55.932;2023-08-07T02:51:01;99393.47;;;24.13;51.83
70730;BME280;58315;53.336;55.932;2023-08-07T02:53:28;99397.72;;;24.21;51.85
70730;BME280;58315;53.336;55.932;2023-08-07T02:55:54;99391.38;;;24.27;51.66
70730;BME280;58315;53.336;55.932;2023-08-07T02:58:20;99389.13;;;24.24;51.70
70730;BME280;58315;53.336;55.932;2023-08-07T03:00:46;99385.53;;;24.30;51.78
70730;BME280;58315;53.336;55.932;2023-08-07T03:03:12;99383.53;;;24.25;51.82
70730;BME280;58315;53.336;55.932;2023-08-07T03:05:38;99396.22;;;24.25;51.81
70730;BME280;58315;53.336;55.932;2023-08-07T03:08:04;99401.72;;;24.30;51.74
70730;BME280;58315;53.336;55.932;2023-08-07T03:10:30;99399.63;;;24.32;51.88
70730;BME280;58315;53.336;55.932;2023-08-07T03:12:56;99401.47;;;24.20;52.34
70730;BME280;58315;53.336;55.932;2023-08-07T03:15:22;99392.69;;;24.24;52.35
70730;BME280;58315;53.336;55.932;2023-08-07T03:17:48;99394.38;;;24.49;51.87
70730;BME280;58315;53.336;55.932;2023-08-07T03:20:15;99408.38;;;24.81;51.86
70730;BME280;58315;53.336;55.932;2023-08-07T03:22:41;99394.56;;;25.82;49.61
70730;BME280;58315;53.336;55.932;2023-08-07T03:25:07;99393.50;;;26.84;48.32
70730;BME280;58315;53.336;55.932;2023-08-07T03:27:34;99398.38;;;27.86;45.84
70730;BME280;58315;53.336;55.932;2023-08-07T03:30:00;99392.28;;;29.13;43.10
70730;BME280;58315;53.336;55.932;2023-08-07T03:32:30;99394.81;;;30.29;41.04
70730;BME280;58315;53.336;55.932;2023-08-07T03:34:56;99401.66;;;31.47;40.07
70730;BME280;58315;53.336;55.932;2023-08-07T03:37:22;99393.13;;;32.08;37.87
70730;BME280;58315;53.336;55.932;2023-08-07T03:39:49;99404.47;;;32.26;37.25
70730;BME280;58315;53.336;55.932;2023-08-07T03:42:16;99399.38;;;33.06;36.24
70730;BME280;58315;53.336;55.932;2023-08-07T03:44:44;99410.25;;;34.16;35.08
70730;BME280;58315;53.336;55.932;2023-08-07T03:47:11;99413.34;;;35.08;32.77
70730;BME280;58315;53.336;55.932;2023-08-07T03:49:37;99408.66;;;35.22;32.46
70730;BME280;58315;53.336;55.932;2023-08-07T03:52:04;99406.06;;;35.67;32.38
70730;BME280;58315;53.336;55.932;2023-08-07T03:54:31;99389.41;;;35.86;31.76
70730;BME280;58315;53.336;55.932;2023-08-07T03:56:58;99396.41;;;36.28;31.21
70730;BME280;58315;53.336;55.932;2023-08-07T03:59:24;99396.03;;;37.06;30.87
70730;BME280;58315;53.336;55.932;2023-08-07T04:01:50;99396.53;;;37.74;29.65
70730;BME280;58315;53.336;55.932;2023-08-07T04:04:16;99387.63;;;37.94;29.67
70730;BME280;58315;53.336;55.932;2023-08-07T04:06:42;99388.25;;;38.34;29.26
70730;BME280;58315;53.336;55.932;2023-08-07T04:09:09;99388.78;;;37.93;28.77
70730;BME280;58315;53.336;55.932;2023-08-07T04:11:36;99387.09;;;37.57;28.72
70730;BME280;58315;53.336;55.932;2023-08-07T04:14:03;99388.75;;;37.76;29.39
70730;BME280;58315;53.336;55.932;2023-08-07T04:16:30;99386.97;;;37.71;29.27
70730;BME280;58315;53.336;55.932;2023-08-07T04:18:57;99387.47;;;37.99;28.67
70730;BME280;58315;53.336;55.932;2023-08-07T04:21:23;99377.59;;;37.90;28.92
70730;BME280;58315;53.336;55.932;2023-08-07T04:23:49;99386.00;;;38.02;28.75
70730;BME280;58315;53.336;55.932;2023-08-07T04:26:15;99383.06;;;38.16;28.80
70730;BME280;58315;53.336;55.932;2023-08-07T04:28:42;99376.22;;;38.30;28.12
70730;BME280;58315;53.336;55.932;2023-08-07T04:31:08;99383.75;;;38.86;27.70
70730;BME280;58315;53.336;55.932;2023-08-07T04:33:34;99384.53;;;38.95;27.54
70730;BME280;58315;53.336;55.932;2023-08-07T04:36:02;99375.31;;;39.12;27.76
70730;BME280;58315;53.336;55.932;2023-08-07T04:38:28;99373.41;;;39.84;26.97
70730;BME280;58315;53.336;55.932;2023-08-07T04:40:54;99372.47;;;40.00;26.60
70730;BME280;58315;53.336;55.932;2023-08-07T04:43:20;99366.69;;;40.06;26.78
70730;BME280;58315;53.336;55.932;2023-08-07T04:45:47;99354.03;;;40.38;26.56
70730;BME280;58315;53.336;55.932;2023-08-07T04:48:13;99360.91;;;40.77;26.04
70730;BME280;58315;53.336;55.932;2023-08-07T04:50:40;99360.56;;;40.66;25.92
70730;BME280;58315;53.336;55.932;2023-08-07T04:53:07;99357.53;;;39.93;26.33
70730;BME280;58315;53.336;55.932;2023-08-07T04:55:33;99351.44;;;40.20;26.08
70730;BME280;58315;53.336;55.932;2023-08-07T04:57:59;99353.56;;;40.36;25.50
70730;BME280;58315;53.336;55.932;2023-08-07T05:00:27;99356.81;;;40.38;25.73
70730;BME280;58315;53.336;55.932;2023-08-07T05:02:53;99351.03;;;40.55;26.14
70730;BME280;58315;53.336;55.932;2023-08-07T05:05:20;99350.88;;;41.22;25.50
70730;BME280;58315;53.336;55.932;2023-08-07T05:07:47;99349.03;;;40.64;25.37
70730;BME280;58315;53.336;55.932;2023-08-07T05:10:14;99342.16;;;40.49;25.43
70730;BME280;58315;53.336;55.932;2023-08-07T05:12:40;99342.03;;;40.46;25.40
70730;BME280;58315;53.336;55.932;2023-08-07T05:15:06;99329.13;;;40.38;25.35
70730;BME280;58315;53.336;55.932;2023-08-07T05:17:33;99327.16;;;40.50;25.07
70730;BME280;58315;53.336;55.932;2023-08-07T05:19:59;99325.47;;;41.19;25.26
70730;BME280;58315;53.336;55.932;2023-08-07T05:22:25;99329.75;;;41.17;24.72
70730;BME280;58315;53.336;55.932;2023-08-07T05:24:51;99325.13;;;41.74;24.31
70730;BME280;58315;53.336;55.932;2023-08-07T05:27:17;99325.69;;;42.23;24.14
70730;BME280;58315;53.336;55.932;2023-08-07T05:29:43;99323.53;;;41.08;24.16
70730;BME280;58315;53.336;55.932;2023-08-07T05:32:14;99315.72;;;40.28;25.36
70730;BME280;58315;53.336;55.932;2023-08-07T05:34:41;99317.50;;;40.44;25.53
70730;BME280;58315;53.336;55.932;2023-08-07T05:37:07;99322.22;;;41.42;24.74
70730;BME280;58315;53.336;55.932;2023-08-07T05:39:35;99312.50;;;41.48;24.04
70730;BME280;58315;53.336;55.932;2023-08-07T05:42:02;99309.25;;;41.86;23.80
70730;BME280;58315;53.336;55.932;2023-08-07T05:44:29;99310.56;;;41.77;24.55
70730;BME280;58315;53.336;55.932;2023-08-07T05:46:55;99306.47;;;41.86;23.92
70730;BME280;58315;53.336;55.932;2023-08-07T05:49:21;99300.25;;;42.05;24.27
70730;BME280;58315;53.336;55.932;2023-08-07T05:51:47;99299.53;;;42.08;23.74
70730;BME280;58315;53.336;55.932;2023-08-07T05:54:13;99303.19;;;40.42;25.25
70730;BME280;58315;53.336;55.932;2023-08-07T05:56:41;99304.81;;;39.56;26.18
70730;BME280;58315;53.336;55.932;2023-08-07T05:59:07;99294.78;;;38.24;27.33
70730;BME280;58315;53.336;55.932;2023-08-07T06:01:33;99299.31;;;38.38;27.97
70730;BME280;58315;53.336;55.932;2023-08-07T06:03:59;99287.19;;;38.98;27.03
70730;BME280;58315;53.336;55.932;2023-08-07T06:06:27;99282.16;;;39.63;26.72
70730;BME280;58315;53.336;55.932;2023-08-07T06:09:00;99290.34;;;40.13;26.09
70730;BME280;58315;53.336;55.932;2023-08-07T06:11:28;99302.25;;;39.51;26.05
70730;BME280;58315;53.336;55.932;2023-08-07T06:13:54;99293.34;;;38.09;27.58
70730;BME280;58315;53.336;55.932;2023-08-07T06:16:20;99280.97;;;38.24;27.78
70730;BME280;58315;53.336;55.932;2023-08-07T06:18:46;99280.34;;;38.36;27.21
70730;BME280;58315;53.336;55.932;2023-08-07T06:21:12;99282.72;;;37.64;28.09
70730;BME280;58315;53.336;55.932;2023-08-07T06:23:38;99278.47;;;37.76;27.50
70730;BME280;58315;53.336;55.932;2023-08-07T06:26:05;99279.66;;;36.83;28.53
70730;BME280;58315;53.336;55.932;2023-08-07T06:28:34;99281.16;;;36.49;29.69
70730;BME280;58315;53.336;55.932;2023-08-07T06:31:03;99275.31;;;35.66;30.16
70730;BME280;58315;53.336;55.932;2023-08-07T06:33:30;99267.09;;;34.88;31.30
70730;BME280;58315;53.336;55.932;2023-08-07T06:35:57;99257.84;;;33.64;33.10
70730;BME280;58315;53.336;55.932;2023-08-07T06:38:23;99262.41;;;32.93;34.14
70730;BME280;58315;53.336;55.932;2023-08-07T06:40:50;99261.41;;;32.35;35.36
70730;BME280;58315;53.336;55.932;2023-08-07T06:43:16;99267.09;;;32.15;35.85
70730;BME280;58315;53.336;55.932;2023-08-07T06:45:43;99266.56;;;31.79;36.15
70730;BME280;58315;53.336;55.932;2023-08-07T06:48:09;99269.50;;;31.53;36.56
70730;BME280;58315;53.336;55.932;2023-08-07T06:50:35;99253.63;;;31.55;36.47
70730;BME280;58315;53.336;55.932;2023-08-07T06:53:01;99261.66;;;32.10;35.98
70730;BME280;58315;53.336;55.932;2023-08-07T06:55:27;99247.00;;;32.01;36.29
70730;BME280;58315;53.336;55.932;2023-08-07T06:57:53;99259.41;;;31.88;36.30
70730;BME280;58315;53.336;55.932;2023-08-07T07:00:20;99252.50;;;31.96;35.85
70730;BME280;58315;53.336;55.932;2023-08-07T07:02:46;99254.91;;;32.02;35.74
70730;BME280;58315;53.336;55.932;2023-08-07T07:05:12;99252.59;;;31.85;36.08
70730;BME280;58315;53.336;55.932;2023-08-07T07:07:39;99259.81;;;31.71;35.89
70730;BME280;58315;53.336;55.932;2023-08-07T07:10:07;99258.31;;;31.50;36.68
70730;BME280;58315;53.336;55.932;2023-08-07T07:12:34;99249.22;;;31.15;37.07
70730;BME280;58315;53.336;55.932;2023-08-07T07:15:00;99250.38;;;31.09;36.90
70730;BME280;58315;53.336;55.932;2023-08-07T07:17:26;99240.34;;;30.94;36.66
70730;BME280;58315;53.336;55.932;2023-08-07T07:19:52;99251.69;;;31.11;36.35
70730;BME280;58315;53.336;55.932;2023-08-07T07:22:18;99241.94;;;31.05;36.93
70730;BME280;58315;53.336;55.932;2023-08-07T07:24:44;99240.97;;;30.81;36.95
70730;BME280;58315;53.336;55.932;2023-08-07T07:27:10;99240.13;;;31.30;36.35
70730;BME280;58315;53.336;55.932;2023-08-07T07:29:36;99242.25;;;31.43;36.25
70730;BME280;58315;53.336;55.932;2023-08-07T07:32:03;99232.16;;;31.43;36.18
70730;BME280;58315;53.336;55.932;2023-08-07T07:34:29;99240.50;;;31.57;36.36
70730;BME280;58315;53.336;55.932;2023-08-07T07:36:55;99243.25;;;31.91;35.78
70730;BME280;58315;53.336;55.932;2023-08-07T07:39:21;99224.66;;;31.93;35.71
70730;BME280;58315;53.336;55.932;2023-08-07T07:41:47;99233.56;;;31.70;36.25
70730;BME280;58315;53.336;55.932;2023-08-07T07:44:13;99240.06;;;30.95;37.48
70730;BME280;58315;53.336;55.932;2023-08-07T07:46:40;99235.03;;;30.53;37.87
70730;BME280;58315;53.336;55.932;2023-08-07T07:49:06;99226.34;;;30.41;38.17
70730;BME280;58315;53.336;55.932;2023-08-07T07:51:33;99228.44;;;30.69;38.08
70730;BME280;58315;53.336;55.932;2023-08-07T07:54:01;99220.72;;;30.92;37.53
70730;BME280;58315;53.336;55.932;2023-08-07T07:56:27;99224.84;;;31.29;37.61
70730;BME280;58315;53.336;55.932;2023-08-07T07:58:53;99228.69;;;31.33;37.29
70730;BME280;58315;53.336;55.932;2023-08-07T08:01:19;99220.50;;;31.28;36.64
70730;BME280;58315;53.336;55.932;2023-08-07T08:03:45;99245.13;;;31.17;36.50
70730;BME280;58315;53.336;55.932;2023-08-07T08:06:12;99230.59;;;30.83;36.19
70730;BME280;58315;53.336;55.932;2023-08-07T08:08:39;99245.34;;;30.66;36.33
70730;BME280;58315;53.336;55.932;2023-08-07T08:11:05;99232.63;;;30.46;36.71
70730;BME280;58315;53.336;55.932;2023-08-07T08:13:31;99231.22;;;30.54;36.75
70730;BME280;58315;53.336;55.932;2023-08-07T08:15:57;99226.06;;;30.47;36.96
70730;BME280;58315;53.336;55.932;2023-08-07T08:18:23;99217.53;;;30.74;36.41
70730;BME280;58315;53.336;55.932;2023-08-07T08:20:50;99217.13;;;31.02;36.96
70730;BME280;58315;53.336;55.932;2023-08-07T08:23:16;99220.91;;;31.06;37.36
70730;BME280;58315;53.336;55.932;2023-08-07T08:25:42;99226.28;;;31.21;36.94
70730;BME280;58315;53.336;55.932;2023-08-07T08:28:08;99227.44;;;31.54;36.80
70730;BME280;58315;53.336;55.932;2023-08-07T08:30:34;99218.72;;;31.86;36.03
70730;BME280;58315;53.336;55.932;2023-08-07T08:33:00;99222.00;;;32.12;35.57
70730;BME280;58315;53.336;55.932;2023-08-07T08:35:27;99224.25;;;31.42;35.79
70730;BME280;58315;53.336;55.932;2023-08-07T08:37:53;99238.38;;;31.05;35.62
70730;BME280;58315;53.336;55.932;2023-08-07T08:40:19;99236.06;;;30.78;35.82
70730;BME280;58315;53.336;55.932;2023-08-07T08:42:47;99218.63;;;30.68;35.99
70730;BME280;58315;53.336;55.932;2023-08-07T08:45:14;99213.38;;;30.87;35.77
70730;BME280;58315;53.336;55.932;2023-08-07T08:47:44;99222.72;;;30.76;36.07
70730;BME280;58315;53.336;55.932;2023-08-07T08:50:13;99207.13;;;30.87;36.24
70730;BME280;58315;53.336;55.932;2023-08-07T08:52:42;99210.13;;;31.35;35.40
70730;BME280;58315;53.336;55.932;2023-08-07T08:55:12;99200.09;;;31.59;35.16
70730;BME280;58315;53.336;55.932;2023-08-07T08:57:39;99203.41;;;31.56;35.13
70730;BME280;58315;53.336;55.932;2023-08-07T09:00:07;99204.38;;;31.70;34.86
70730;BME280;58315;53.336;55.932;2023-08-07T09:02:50;99201.09;;;31.68;35.24
70730;BME280;58315;53.336;55.932;2023-08-07T09:05:19;99206.31;;;31.65;35.66
70730;BME280;58315;53.336;55.932;2023-08-07T09:07:49;99199.47;;;31.67;35.33
70730;BME280;58315;53.336;55.932;2023-08-07T09:10:16;99201.81;;;31.50;35.39
70730;BME280;58315;53.336;55.932;2023-08-07T09:12:52;99196.31;;;31.11;35.49
70730;BME280;58315;53.336;55.932;2023-08-07T09:15:21;99202.94;;;30.99;34.98
70730;BME280;58315;53.336;55.932;2023-08-07T09:17:49;99187.94;;;31.02;34.88
70730;BME280;58315;53.336;55.932;2023-08-07T09:20:17;99187.28;;;31.15;35.17
70730;BME280;58315;53.336;55.932;2023-08-07T09:22:43;99190.47;;;31.28;35.08
70730;BME280;58315;53.336;55.932;2023-08-07T09:25:09;99181.16;;;31.39;34.94
70730;BME280;58315;53.336;55.932;2023-08-07T09:27:39;99181.91;;;31.79;34.98
70730;BME280;58315;53.336;55.932;2023-08-07T09:30:07;99177.88;;;31.71;35.12
70730;BME280;58315;53.336;55.932;2023-08-07T09:32:36;99184.78;;;31.63;34.97
70730;BME280;58315;53.336;55.932;2023-08-07T09:35:06;99183.34;;;31.71;34.61
70730;BME280;58315;53.336;55.932;2023-08-07T09:37:36;99187.50;;;31.63;34.97
70730;BME280;58315;53.336;55.932;2023-08-07T09:40:03;99177.78;;;31.47;34.98
70730;BME280;58315;53.336;55.932;2023-08-07T09:42:32;99176.34;;;31.60;34.46
70730;BME280;58315;53.336;55.932;2023-08-07T09:45:00;99169.34;;;31.78;33.69
70730;BME280;58315;53.336;55.932;2023-08-07T09:47:27;99181.88;;;31.50;33.76
70730;BME280;58315;53.336;55.932;2023-08-07T09:49:55;99172.50;;;31.61;34.13
70730;BME280;58315;53.336;55.932;2023-08-07T09:52:22;99176.69;;;31.77;34.15
70730;BME280;58315;53.336;55.932;2023-08-07T09:54:50;99173.63;;;31.89;33.89
70730;BME280;58315;53.336;55.932;2023-08-07T09:57:17;99173.09;;;31.87;33.44
70730;BME280;58315;53.336;55.932;2023-08-07T09:59:49;99177.78;;;31.47;33.68
70730;BME280;58315;53.336;55.932;2023-08-07T10:02:15;99172.44;;;30.92;34.53
70730;BME280;58315;53.336;55.932;2023-08-07T10:04:42;99171.00;;;31.05;34.25
70730;BME280;58315;53.336;55.932;2023-08-07T10:07:09;99182.41;;;31.12;34.12
70730;BME280;58315;53.336;55.932;2023-08-07T10:09:37;99173.88;;;31.58;33.82
70730;BME280;58315;53.336;55.932;2023-08-07T10:12:04;99168.00;;;31.41;34.31
70730;BME280;58315;53.336;55.932;2023-08-07T10:14:31;99168.50;;;31.48;33.81
70730;BME280;58315;53.336;55.932;2023-08-07T10:16:57;99164.38;;;31.56;33.89
70730;BME280;58315;53.336;55.932;2023-08-07T10:19:24;99159.84;;;31.70;33.72
70730;BME280;58315;53.336;55.932;2023-08-07T10:21:51;99165.94;;;31.62;33.63
70730;BME280;58315;53.336;55.932;2023-08-07T10:24:19;99170.06;;;31.59;33.98
70730;BME280;58315;53.336;55.932;2023-08-07T10:26:46;99170.97;;;31.44;33.65
70730;BME280;58315;53.336;55.932;2023-08-07T10:29:16;99163.44;;;31.65;33.75
70730;BME280;58315;53.336;55.932;2023-08-07T10:31:44;99161.03;;;31.59;34.06
70730;BME280;58315;53.336;55.932;2023-08-07T10:34:11;99159.97;;;31.89;33.72
70730;BME280;58315;53.336;55.932;2023-08-07T10:36:39;99162.72;;;31.89;32.87
70730;BME280;58315;53.336;55.932;2023-08-07T10:39:08;99173.47;;;31.41;32.81
70730;BME280;58315;53.336;55.932;2023-08-07T10:41:45;99169.03;;;31.11;33.82
70730;BME280;58315;53.336;55.932;2023-08-07T10:44:18;99173.72;;;31.05;33.86
70730;BME280;58315;53.336;55.932;2023-08-07T10:46:50;99161.22;;;30.99;34.04
70730;BME280;58315;53.336;55.932;2023-08-07T10:49:30;99171.50;;;31.12;33.67
70730;BME280;58315;53.336;55.932;2023-08-07T10:52:04;99166.56;;;31.14;34.65
70730;BME280;58315;53.336;55.932;2023-08-07T10:54:30;99164.06;;;31.23;33.73
70730;BME280;58315;53.336;55.932;2023-08-07T10:56:59;99165.75;;;31.53;34.06
70730;BME280;58315;53.336;55.932;2023-08-07T10:59:25;99156.69;;;31.58;33.58
70730;BME280;58315;53.336;55.932;2023-08-07T11:01:55;99150.97;;;31.59;33.99
70730;BME280;58315;53.336;55.932;2023-08-07T11:04:22;99173.00;;;31.63;33.39
70730;BME280;58315;53.336;55.932;2023-08-07T11:06:51;99158.66;;;31.52;33.25
70730;BME280;58315;53.336;55.932;2023-08-07T11:09:17;99158.59;;;31.57;33.54
70730;BME280;58315;53.336;55.932;2023-08-07T11:11:46;99156.50;;;31.78;33.16
70730;BME280;58315;53.336;55.932;2023-08-07T11:14:17;99148.19;;;31.93;33.29
70730;BME280;58315;53.336;55.932;2023-08-07T11:16:46;99145.44;;;31.93;32.96
70730;BME280;58315;53.336;55.932;2023-08-07T11:19:16;99149.56;;;31.91;33.54
70730;BME280;58315;53.336;55.932;2023-08-07T11:21:43;99151.84;;;31.79;33.67
70730;BME280;58315;53.336;55.932;2023-08-07T11:24:13;99144.97;;;31.86;33.86
70730;BME280;58315;53.336;55.932;2023-08-07T11:26:43;99146.16;;;31.75;33.95
70730;BME280;58315;53.336;55.932;2023-08-07T11:29:09;99145.44;;;31.93;33.75
70730;BME280;58315;53.336;55.932;2023-08-07T11:31:35;99130.41;;;31.96;32.96
70730;BME280;58315;53.336;55.932;2023-08-07T11:34:02;99145.09;;;32.00;32.77
70730;BME280;58315;53.336;55.932;2023-08-07T11:36:28;99140.72;;;31.99;32.96
70730;BME280;58315;53.336;55.932;2023-08-07T11:38:55;99145.94;;;31.96;32.93
70730;BME280;58315;53.336;55.932;2023-08-07T11:41:21;99134.09;;;32.05;32.94
70730;BME280;58315;53.336;55.932;2023-08-07T11:43:47;99144.69;;;32.12;32.93
70730;BME280;58315;53.336;55.932;2023-08-07T11:46:15;99140.97;;;32.27;33.06
70730;BME280;58315;53.336;55.932;2023-08-07T11:48:42;99134.09;;;32.29;32.73
70730;BME280;58315;53.336;55.932;2023-08-07T11:51:10;99142.13;;;32.21;33.21
70730;BME280;58315;53.336;55.932;2023-08-07T11:53:37;99145.44;;;32.17;33.02
70730;BME280;58315;53.336;55.932;2023-08-07T11:56:07;99130.41;;;31.96;32.86
70730;BME280;58315;53.336;55.932;2023-08-07T11:58:36;99140.50;;;31.96;33.33
70730;BME280;58315;53.336;55.932;2023-08-07T12:01:09;99134.28;;;32.14;32.74
70730;BME280;58315;53.336;55.932;2023-08-07T12:03:37;99133.72;;;31.93;33.24
70730;BME280;58315;53.336;55.932;2023-08-07T12:06:08;99132.81;;;31.98;33.34
70730;BME280;58315;53.336;55.932;2023-08-07T12:08:36;99133.41;;;32.18;33.62
70730;BME280;58315;53.336;55.932;2023-08-07T12:11:07;99125.72;;;32.21;33.59
70730;BME280;58315;53.336;55.932;2023-08-07T12:13:53;99129.38;;;32.35;33.43
70730;BME280;58315;53.336;55.932;2023-08-07T12:16:20;99122.47;;;32.18;33.41
70730;BME280;58315;53.336;55.932;2023-08-07T12:18:51;99122.78;;;32.36;33.35
70730;BME280;58315;53.336;55.932;2023-08-07T12:21:20;99130.34;;;32.25;33.48
70730;BME280;58315;53.336;55.932;2023-08-07T12:23:48;99130.53;;;32.29;33.63
70730;BME280;58315;53.336;55.932;2023-08-07T12:26:16;99126.19;;;32.28;33.25
70730;BME280;58315;53.336;55.932;2023-08-07T12:28:42;99130.59;;;32.24;33.33
70730;BME280;58315;53.336;55.932;2023-08-07T12:31:09;99128.03;;;32.32;33.44
70730;BME280;58315;53.336;55.932;2023-08-07T12:33:35;99127.81;;;32.29;33.24
70730;BME280;58315;53.336;55.932;2023-08-07T12:36:02;99130.97;;;32.17;33.71
70730;BME280;58315;53.336;55.932;2023-08-07T12:38:28;99124.22;;;32.09;34.05
70730;BME280;58315;53.336;55.932;2023-08-07T12:40:55;99121.50;;;32.09;33.86
70730;BME280;58315;53.336;55.932;2023-08-07T12:43:21;99123.41;;;32.09;33.52
70730;BME280;58315;53.336;55.932;2023-08-07T12:45:47;99122.38;;;32.05;32.89
70730;BME280;58315;53.336;55.932;2023-08-07T12:48:14;99119.94;;;31.74;33.30
70730;BME280;58315;53.336;55.932;2023-08-07T12:50:40;99119.59;;;31.81;33.52
70730;BME280;58315;53.336;55.932;2023-08-07T12:53:08;99124.72;;;31.58;33.77
70730;BME280;58315;53.336;55.932;2023-08-07T12:55:34;99115.81;;;31.48;33.86
70730;BME280;58315;53.336;55.932;2023-08-07T12:58:00;99112.81;;;31.49;33.92
70730;BME280;58315;53.336;55.932;2023-08-07T13:00:27;99112.75;;;31.54;34.13